sensor_id;sensor_type;location;lat;lon;timestamp;P1;durP1;ratioP1;P2;durP2;ratioP2
54167;SDS011;68429;50.958;3.592;2023-07-20T00:01:58;15.00;;;5.15;;
54167;SDS011;68429;50.958;3.592;2023-07-20T00:04:23;12.73;;;5.22;;
54167;SDS011;68429;50.958;3.592;2023-07-20T00:06:49;11.65;;;4.47;;
54167;SDS011;68429;50.958;3.592;2023-07-20T00:09:15;13.23;;;5.13;;
54167;SDS011;68429;50.958;3.592;2023-07-20T00:11:47;12.25;;;6.10;;
54167;SDS011;68429;50.958;3.592;2023-07-20T00:14:15;15.30;;;5.22;;
54167;SDS011;68429;50.958;3.592;2023-07-20T00:16:41;14.23;;;4.80;;
54167;SDS011;68429;50.958;3.592;2023-07-20T00:19:07;13.23;;;5.35;;
54167;SDS011;68429;50.958;3.592;2023-07-20T00:21:33;15.38;;;5.72;;
54167;SDS011;68429;50.958;3.592;2023-07-20T00:23:58;9.80;;;5.22;;
54167;SDS011;68429;50.958;3.592;2023-07-20T00:26:24;16.27;;;5.85;;
54167;SDS011;68429;50.958;3.592;2023-07-20T00:28:50;15.60;;;6.00;;
54167;SDS011;68429;50.958;3.592;2023-07-20T00:31:18;12.47;;;6.10;;
54167;SDS011;68429;50.958;3.592;2023-07-20T00:33:44;18.08;;;6.32;;
54167;SDS011;68429;50.958;3.592;2023-07-20T00:36:10;18.35;;;6.03;;
54167;SDS011;68429;50.958;3.592;2023-07-20T00:38:35;10.70;;;5.72;;
54167;SDS011;68429;50.958;3.592;2023-07-20T00:41:01;12.52;;;5.70;;
54167;SDS011;68429;50.958;3.592;2023-07-20T00:43:27;15.55;;;6.65;;
54167;SDS011;68429;50.958;3.592;2023-07-20T00:45:52;13.18;;;6.50;;
54167;SDS011;68429;50.958;3.592;2023-07-20T00:48:18;24.33;;;6.97;;
54167;SDS011;68429;50.958;3.592;2023-07-20T00:50:44;16.25;;;6.85;;
54167;SDS011;68429;50.958;3.592;2023-07-20T00:53:11;17.33;;;7.38;;
54167;SDS011;68429;50.958;3.592;2023-07-20T00:55:37;17.35;;;7.10;;
54167;SDS011;68429;50.958;3.592;2023-07-20T00:58:02;20.08;;;7.05;;
54167;SDS011;68429;50.958;3.592;2023-07-20T01:00:29;11.88;;;6.47;;
54167;SDS011;68429;50.958;3.592;2023-07-20T01:02:55;17.30;;;6.65;;
54167;SDS011;68429;50.958;3.592;2023-07-20T01:05:21;12.80;;;6.47;;
54167;SDS011;68429;50.958;3.592;2023-07-20T01:07:55;15.30;;;7.18;;
54167;SDS011;68429;50.958;3.592;2023-07-20T01:13:03;14.68;;;8.57;;
54167;SDS011;68429;50.958;3.592;2023-07-20T01:15:34;15.35;;;6.97;;
54167;SDS011;68429;50.958;3.592;2023-07-20T01:18:00;12.20;;;6.30;;
54167;SDS011;68429;50.958;3.592;2023-07-20T01:20:30;13.82;;;6.47;;
54167;SDS011;68429;50.958;3.592;2023-07-20T01:25:52;15.93;;;7.15;;
54167;SDS011;68429;50.958;3.592;2023-07-20T01:31:26;13.85;;;6.85;;
54167;SDS011;68429;50.958;3.592;2023-07-20T01:33:56;11.82;;;7.40;;
54167;SDS011;68429;50.958;3.592;2023-07-20T01:36:26;16.98;;;7.57;;
54167;SDS011;68429;50.958;3.592;2023-07-20T01:38:54;13.93;;;6.57;;
54167;SDS011;68429;50.958;3.592;2023-07-20T01:41:21;18.13;;;7.25;;
54167;SDS011;68429;50.958;3.592;2023-07-20T01:43:47;15.45;;;7.25;;
54167;SDS011;68429;50.958;3.592;2023-07-20T01:46:13;13.55;;;7.45;;
54167;SDS011;68429;50.958;3.592;2023-07-20T01:48:38;12.60;;;7.57;;
54167;SDS011;68429;50.958;3.592;2023-07-20T01:51:04;18.52;;;7.82;;
54167;SDS011;68429;50.958;3.592;2023-07-20T01:53:30;16.10;;;8.07;;
54167;SDS011;68429;50.958;3.592;2023-07-20T01:55:56;14.70;;;7.40;;
54167;SDS011;68429;50.958;3.592;2023-07-20T01:58:22;13.77;;;7.28;;
54167;SDS011;68429;50.958;3.592;2023-07-20T02:00:48;14.40;;;7.72;;
54167;SDS011;68429;50.958;3.592;2023-07-20T02:03:14;12.00;;;7.85;;
54167;SDS011;68429;50.958;3.592;2023-07-20T02:05:41;12.63;;;7.43;;
54167;SDS011;68429;50.958;3.592;2023-07-20T02:08:07;15.60;;;7.20;;
54167;SDS011;68429;50.958;3.592;2023-07-20T02:10:34;12.55;;;7.78;;
54167;SDS011;68429;50.958;3.592;2023-07-20T02:13:00;12.82;;;7.25;;
54167;SDS011;68429;50.958;3.592;2023-07-20T02:15:26;14.38;;;7.78;;
54167;SDS011;68429;50.958;3.592;2023-07-20T02:17:52;11.07;;;7.57;;
54167;SDS011;68429;50.958;3.592;2023-07-20T02:20:18;26.58;;;9.02;;
54167;SDS011;68429;50.958;3.592;2023-07-20T02:22:44;14.38;;;7.90;;
54167;SDS011;68429;50.958;3.592;2023-07-20T02:25:10;15.50;;;8.10;;
54167;SDS011;68429;50.958;3.592;2023-07-20T02:27:36;17.73;;;8.10;;
54167;SDS011;68429;50.958;3.592;2023-07-20T02:30:03;12.95;;;8.18;;
54167;SDS011;68429;50.958;3.592;2023-07-20T02:32:29;17.67;;;8.68;;
54167;SDS011;68429;50.958;3.592;2023-07-20T02:34:56;15.05;;;8.73;;
54167;SDS011;68429;50.958;3.592;2023-07-20T02:37:22;13.55;;;8.05;;
54167;SDS011;68429;50.958;3.592;2023-07-20T02:39:48;12.73;;;8.70;;
54167;SDS011;68429;50.958;3.592;2023-07-20T02:42:14;15.57;;;8.88;;
54167;SDS011;68429;50.958;3.592;2023-07-20T02:44:39;14.52;;;8.68;;
54167;SDS011;68429;50.958;3.592;2023-07-20T02:47:05;14.00;;;8.77;;
54167;SDS011;68429;50.958;3.592;2023-07-20T02:49:31;13.70;;;9.05;;
54167;SDS011;68429;50.958;3.592;2023-07-20T02:51:57;16.95;;;9.38;;
54167;SDS011;68429;50.958;3.592;2023-07-20T02:54:22;14.63;;;9.38;;
54167;SDS011;68429;50.958;3.592;2023-07-20T02:56:48;14.45;;;8.20;;
54167;SDS011;68429;50.958;3.592;2023-07-20T02:59:14;17.27;;;8.25;;
54167;SDS011;68429;50.958;3.592;2023-07-20T03:01:40;15.57;;;8.60;;
54167;SDS011;68429;50.958;3.592;2023-07-20T03:04:07;14.63;;;8.77;;
54167;SDS011;68429;50.958;3.592;2023-07-20T03:06:35;14.70;;;9.20;;
54167;SDS011;68429;50.958;3.592;2023-07-20T03:09:01;16.77;;;9.45;;
54167;SDS011;68429;50.958;3.592;2023-07-20T03:11:27;12.85;;;8.60;;
54167;SDS011;68429;50.958;3.592;2023-07-20T03:13:52;14.60;;;8.82;;
54167;SDS011;68429;50.958;3.592;2023-07-20T03:16:18;19.95;;;9.00;;
54167;SDS011;68429;50.958;3.592;2023-07-20T03:18:44;14.77;;;8.45;;
54167;SDS011;68429;50.958;3.592;2023-07-20T03:21:10;13.40;;;8.10;;
54167;SDS011;68429;50.958;3.592;2023-07-20T03:23:37;12.82;;;8.88;;
54167;SDS011;68429;50.958;3.592;2023-07-20T03:26:06;12.18;;;8.32;;
54167;SDS011;68429;50.958;3.592;2023-07-20T03:28:38;10.30;;;8.05;;
54167;SDS011;68429;50.958;3.592;2023-07-20T03:31:04;12.52;;;8.55;;
54167;SDS011;68429;50.958;3.592;2023-07-20T03:33:30;17.10;;;8.43;;
54167;SDS011;68429;50.958;3.592;2023-07-20T03:35:56;14.45;;;8.88;;
54167;SDS011;68429;50.958;3.592;2023-07-20T03:38:23;12.80;;;8.95;;
54167;SDS011;68429;50.958;3.592;2023-07-20T03:40:56;13.35;;;7.93;;
54167;SDS011;68429;50.958;3.592;2023-07-20T03:43:23;10.18;;;8.02;;
54167;SDS011;68429;50.958;3.592;2023-07-20T03:45:50;15.07;;;8.80;;
54167;SDS011;68429;50.958;3.592;2023-07-20T03:48:17;12.65;;;8.77;;
54167;SDS011;68429;50.958;3.592;2023-07-20T03:50:44;12.82;;;8.63;;
54167;SDS011;68429;50.958;3.592;2023-07-20T03:53:11;9.98;;;7.97;;
54167;SDS011;68429;50.958;3.592;2023-07-20T03:55:37;19.45;;;9.20;;
54167;SDS011;68429;50.958;3.592;2023-07-20T03:58:03;12.68;;;8.57;;
54167;SDS011;68429;50.958;3.592;2023-07-20T04:00:28;19.83;;;10.00;;
54167;SDS011;68429;50.958;3.592;2023-07-20T04:02:54;11.00;;;8.30;;
54167;SDS011;68429;50.958;3.592;2023-07-20T04:05:20;16.52;;;9.20;;
54167;SDS011;68429;50.958;3.592;2023-07-20T04:07:45;11.45;;;8.75;;
54167;SDS011;68429;50.958;3.592;2023-07-20T04:10:11;18.52;;;9.57;;
54167;SDS011;68429;50.958;3.592;2023-07-20T04:12:37;14.38;;;9.52;;
54167;SDS011;68429;50.958;3.592;2023-07-20T04:15:03;16.63;;;8.98;;
54167;SDS011;68429;50.958;3.592;2023-07-20T04:17:29;13.18;;;9.10;;
54167;SDS011;68429;50.958;3.592;2023-07-20T04:19:55;12.48;;;9.65;;
54167;SDS011;68429;50.958;3.592;2023-07-20T04:22:20;14.18;;;9.60;;
54167;SDS011;68429;50.958;3.592;2023-07-20T04:24:46;15.90;;;9.40;;
54167;SDS011;68429;50.958;3.592;2023-07-20T04:27:12;12.95;;;9.35;;
54167;SDS011;68429;50.958;3.592;2023-07-20T04:29:38;14.13;;;9.00;;
54167;SDS011;68429;50.958;3.592;2023-07-20T04:32:04;10.95;;;9.27;;
54167;SDS011;68429;50.958;3.592;2023-07-20T04:34:30;18.38;;;9.43;;
54167;SDS011;68429;50.958;3.592;2023-07-20T04:36:55;19.05;;;8.85;;
54167;SDS011;68429;50.958;3.592;2023-07-20T04:39:21;13.95;;;9.88;;
54167;SDS011;68429;50.958;3.592;2023-07-20T04:41:47;11.88;;;9.55;;
54167;SDS011;68429;50.958;3.592;2023-07-20T04:44:13;13.57;;;8.88;;
54167;SDS011;68429;50.958;3.592;2023-07-20T04:46:39;15.65;;;9.00;;
54167;SDS011;68429;50.958;3.592;2023-07-20T04:49:05;11.90;;;9.27;;
54167;SDS011;68429;50.958;3.592;2023-07-20T04:51:31;15.05;;;9.20;;
54167;SDS011;68429;50.958;3.592;2023-07-20T04:53:57;12.27;;;8.93;;
54167;SDS011;68429;50.958;3.592;2023-07-20T04:56:23;15.13;;;9.65;;
54167;SDS011;68429;50.958;3.592;2023-07-20T04:58:49;12.98;;;8.80;;
54167;SDS011;68429;50.958;3.592;2023-07-20T05:01:15;16.00;;;9.77;;
54167;SDS011;68429;50.958;3.592;2023-07-20T05:03:41;11.68;;;9.40;;
54167;SDS011;68429;50.958;3.592;2023-07-20T05:06:07;12.90;;;9.80;;
54167;SDS011;68429;50.958;3.592;2023-07-20T05:08:32;18.83;;;9.40;;
54167;SDS011;68429;50.958;3.592;2023-07-20T05:10:59;16.58;;;9.40;;
54167;SDS011;68429;50.958;3.592;2023-07-20T05:13:25;12.25;;;9.23;;
54167;SDS011;68429;50.958;3.592;2023-07-20T05:15:51;13.95;;;9.50;;
54167;SDS011;68429;50.958;3.592;2023-07-20T05:18:17;13.95;;;9.73;;
54167;SDS011;68429;50.958;3.592;2023-07-20T05:20:48;14.50;;;10.15;;
54167;SDS011;68429;50.958;3.592;2023-07-20T05:23:14;15.73;;;9.20;;
54167;SDS011;68429;50.958;3.592;2023-07-20T05:25:42;12.55;;;9.45;;
54167;SDS011;68429;50.958;3.592;2023-07-20T05:28:08;11.68;;;8.93;;
54167;SDS011;68429;50.958;3.592;2023-07-20T05:30:34;11.85;;;9.27;;
54167;SDS011;68429;50.958;3.592;2023-07-20T05:33:00;11.35;;;8.57;;
54167;SDS011;68429;50.958;3.592;2023-07-20T05:35:26;14.25;;;8.65;;
54167;SDS011;68429;50.958;3.592;2023-07-20T05:37:52;12.88;;;8.88;;
54167;SDS011;68429;50.958;3.592;2023-07-20T05:40:17;12.10;;;7.93;;
54167;SDS011;68429;50.958;3.592;2023-07-20T05:42:47;11.02;;;7.82;;
54167;SDS011;68429;50.958;3.592;2023-07-20T05:45:16;13.00;;;8.30;;
54167;SDS011;68429;50.958;3.592;2023-07-20T05:47:43;9.70;;;8.23;;
54167;SDS011;68429;50.958;3.592;2023-07-20T05:50:09;14.55;;;9.13;;
54167;SDS011;68429;50.958;3.592;2023-07-20T05:52:35;13.07;;;7.13;;
54167;SDS011;68429;50.958;3.592;2023-07-20T05:55:03;12.60;;;7.57;;
54167;SDS011;68429;50.958;3.592;2023-07-20T05:57:29;11.02;;;7.78;;
54167;SDS011;68429;50.958;3.592;2023-07-20T05:59:54;9.23;;;7.82;;
54167;SDS011;68429;50.958;3.592;2023-07-20T06:02:20;12.70;;;7.97;;
54167;SDS011;68429;50.958;3.592;2023-07-20T06:04:46;9.98;;;6.88;;
54167;SDS011;68429;50.958;3.592;2023-07-20T06:07:12;8.88;;;6.90;;
54167;SDS011;68429;50.958;3.592;2023-07-20T06:09:37;7.13;;;5.97;;
54167;SDS011;68429;50.958;3.592;2023-07-20T06:12:03;10.63;;;5.53;;
54167;SDS011;68429;50.958;3.592;2023-07-20T06:14:29;6.50;;;5.65;;
54167;SDS011;68429;50.958;3.592;2023-07-20T06:16:55;5.97;;;5.32;;
54167;SDS011;68429;50.958;3.592;2023-07-20T06:19:20;7.93;;;5.25;;
54167;SDS011;68429;50.958;3.592;2023-07-20T06:21:47;6.80;;;5.90;;
54167;SDS011;68429;50.958;3.592;2023-07-20T06:24:14;6.00;;;5.43;;
54167;SDS011;68429;50.958;3.592;2023-07-20T06:26:40;5.57;;;5.07;;
54167;SDS011;68429;50.958;3.592;2023-07-20T06:29:06;5.30;;;4.78;;
54167;SDS011;68429;50.958;3.592;2023-07-20T06:31:32;8.55;;;4.15;;
54167;SDS011;68429;50.958;3.592;2023-07-20T06:33:59;5.90;;;4.28;;
54167;SDS011;68429;50.958;3.592;2023-07-20T06:36:24;4.88;;;3.75;;
54167;SDS011;68429;50.958;3.592;2023-07-20T06:38:53;4.20;;;3.70;;
54167;SDS011;68429;50.958;3.592;2023-07-20T06:41:19;5.28;;;3.80;;
54167;SDS011;68429;50.958;3.592;2023-07-20T06:43:45;4.25;;;3.88;;
54167;SDS011;68429;50.958;3.592;2023-07-20T06:46:11;9.52;;;3.70;;
54167;SDS011;68429;50.958;3.592;2023-07-20T06:48:36;6.75;;;3.95;;
54167;SDS011;68429;50.958;3.592;2023-07-20T06:51:02;4.75;;;3.97;;
54167;SDS011;68429;50.958;3.592;2023-07-20T06:53:28;3.88;;;3.45;;
54167;SDS011;68429;50.958;3.592;2023-07-20T06:55:54;5.72;;;4.13;;
54167;SDS011;68429;50.958;3.592;2023-07-20T06:58:23;5.32;;;4.82;;
54167;SDS011;68429;50.958;3.592;2023-07-20T07:00:49;4.43;;;3.22;;
54167;SDS011;68429;50.958;3.592;2023-07-20T07:03:15;5.85;;;3.80;;
54167;SDS011;68429;50.958;3.592;2023-07-20T07:05:41;5.53;;;3.58;;
54167;SDS011;68429;50.958;3.592;2023-07-20T07:08:08;4.05;;;3.58;;
54167;SDS011;68429;50.958;3.592;2023-07-20T07:10:34;4.18;;;3.78;;
54167;SDS011;68429;50.958;3.592;2023-07-20T07:13:01;7.38;;;3.53;;
54167;SDS011;68429;50.958;3.592;2023-07-20T07:15:27;4.78;;;3.40;;
54167;SDS011;68429;50.958;3.592;2023-07-20T07:17:53;3.88;;;3.47;;
54167;SDS011;68429;50.958;3.592;2023-07-20T07:20:19;3.22;;;2.92;;
54167;SDS011;68429;50.958;3.592;2023-07-20T07:22:45;3.45;;;2.78;;
54167;SDS011;68429;50.958;3.592;2023-07-20T07:25:11;3.90;;;2.75;;
54167;SDS011;68429;50.958;3.592;2023-07-20T07:27:37;2.40;;;2.25;;
54167;SDS011;68429;50.958;3.592;2023-07-20T07:30:03;3.15;;;2.10;;
54167;SDS011;68429;50.958;3.592;2023-07-20T07:32:30;2.92;;;2.28;;
54167;SDS011;68429;50.958;3.592;2023-07-20T07:34:56;2.58;;;2.22;;
54167;SDS011;68429;50.958;3.592;2023-07-20T07:37:23;2.35;;;2.00;;
54167;SDS011;68429;50.958;3.592;2023-07-20T07:39:49;3.35;;;2.17;;
54167;SDS011;68429;50.958;3.592;2023-07-20T07:42:15;2.72;;;1.95;;
54167;SDS011;68429;50.958;3.592;2023-07-20T07:44:40;2.17;;;1.98;;
54167;SDS011;68429;50.958;3.592;2023-07-20T07:47:06;2.33;;;2.13;;
54167;SDS011;68429;50.958;3.592;2023-07-20T07:49:32;2.47;;;1.95;;
54167;SDS011;68429;50.958;3.592;2023-07-20T07:51:58;2.38;;;2.17;;
54167;SDS011;68429;50.958;3.592;2023-07-20T07:54:23;3.35;;;1.95;;
54167;SDS011;68429;50.958;3.592;2023-07-20T07:56:50;2.97;;;1.92;;
54167;SDS011;68429;50.958;3.592;2023-07-20T07:59:16;3.80;;;1.90;;
54167;SDS011;68429;50.958;3.592;2023-07-20T08:01:42;1.70;;;1.60;;
54167;SDS011;68429;50.958;3.592;2023-07-20T08:04:07;1.92;;;1.60;;
54167;SDS011;68429;50.958;3.592;2023-07-20T08:06:33;2.25;;;1.80;;
54167;SDS011;68429;50.958;3.592;2023-07-20T08:08:59;3.88;;;1.80;;
54167;SDS011;68429;50.958;3.592;2023-07-20T08:11:25;2.90;;;1.98;;
54167;SDS011;68429;50.958;3.592;2023-07-20T08:13:51;1.88;;;1.55;;
54167;SDS011;68429;50.958;3.592;2023-07-20T08:16:17;6.00;;;1.48;;
54167;SDS011;68429;50.958;3.592;2023-07-20T08:18:43;2.80;;;1.77;;
54167;SDS011;68429;50.958;3.592;2023-07-20T08:21:09;1.98;;;1.88;;
54167;SDS011;68429;50.958;3.592;2023-07-20T08:23:34;1.67;;;1.50;;
54167;SDS011;68429;50.958;3.592;2023-07-20T08:26:00;1.45;;;1.35;;
54167;SDS011;68429;50.958;3.592;2023-07-20T08:28:26;1.45;;;1.35;;
54167;SDS011;68429;50.958;3.592;2023-07-20T08:30:52;1.73;;;1.50;;
54167;SDS011;68429;50.958;3.592;2023-07-20T08:33:18;2.38;;;1.75;;
54167;SDS011;68429;50.958;3.592;2023-07-20T08:35:48;4.10;;;1.58;;
54167;SDS011;68429;50.958;3.592;2023-07-20T08:38:14;3.00;;;1.65;;
54167;SDS011;68429;50.958;3.592;2023-07-20T08:40:44;2.03;;;1.80;;
54167;SDS011;68429;50.958;3.592;2023-07-20T08:43:11;2.38;;;1.50;;
54167;SDS011;68429;50.958;3.592;2023-07-20T08:45:39;2.22;;;1.50;;
54167;SDS011;68429;50.958;3.592;2023-07-20T08:48:05;1.70;;;1.60;;
54167;SDS011;68429;50.958;3.592;2023-07-20T08:50:32;1.88;;;1.38;;
54167;SDS011;68429;50.958;3.592;2023-07-20T08:52:59;1.50;;;1.40;;
54167;SDS011;68429;50.958;3.592;2023-07-20T08:55:26;4.82;;;1.42;;
54167;SDS011;68429;50.958;3.592;2023-07-20T08:57:53;1.40;;;1.30;;
54167;SDS011;68429;50.958;3.592;2023-07-20T09:00:20;2.35;;;1.45;;
54167;SDS011;68429;50.958;3.592;2023-07-20T09:02:48;2.28;;;1.52;;
54167;SDS011;68429;50.958;3.592;2023-07-20T09:05:16;2.80;;;1.40;;
54167;SDS011;68429;50.958;3.592;2023-07-20T09:07:43;1.55;;;1.45;;
54167;SDS011;68429;50.958;3.592;2023-07-20T09:10:09;3.60;;;1.33;;
54167;SDS011;68429;50.958;3.592;2023-07-20T09:12:36;2.05;;;1.10;;
54167;SDS011;68429;50.958;3.592;2023-07-20T09:15:05;2.08;;;1.42;;
54167;SDS011;68429;50.958;3.592;2023-07-20T09:17:32;1.75;;;1.33;;
54167;SDS011;68429;50.958;3.592;2023-07-20T09:19:58;3.67;;;1.80;;
54167;SDS011;68429;50.958;3.592;2023-07-20T09:22:30;1.40;;;1.27;;
54167;SDS011;68429;50.958;3.592;2023-07-20T09:24:56;3.05;;;1.30;;
54167;SDS011;68429;50.958;3.592;2023-07-20T09:27:29;2.55;;;1.63;;
54167;SDS011;68429;50.958;3.592;2023-07-20T09:30:01;1.20;;;1.20;;
54167;SDS011;68429;50.958;3.592;2023-07-20T09:32:27;1.65;;;1.25;;
54167;SDS011;68429;50.958;3.592;2023-07-20T09:34:52;2.30;;;1.67;;
54167;SDS011;68429;50.958;3.592;2023-07-20T09:37:22;2.00;;;1.17;;
54167;SDS011;68429;50.958;3.592;2023-07-20T09:39:48;1.20;;;1.10;;
54167;SDS011;68429;50.958;3.592;2023-07-20T09:42:18;1.73;;;1.10;;
54167;SDS011;68429;50.958;3.592;2023-07-20T09:44:43;1.73;;;1.15;;
54167;SDS011;68429;50.958;3.592;2023-07-20T09:47:09;1.10;;;1.00;;
54167;SDS011;68429;50.958;3.592;2023-07-20T09:49:41;0.93;;;0.80;;
54167;SDS011;68429;50.958;3.592;2023-07-20T09:52:08;4.00;;;1.05;;
54167;SDS011;68429;50.958;3.592;2023-07-20T09:54:35;1.38;;;1.00;;
54167;SDS011;68429;50.958;3.592;2023-07-20T09:57:03;2.05;;;1.00;;
54167;SDS011;68429;50.958;3.592;2023-07-20T09:59:32;2.67;;;1.00;;
54167;SDS011;68429;50.958;3.592;2023-07-20T10:01:58;1.10;;;1.10;;
54167;SDS011;68429;50.958;3.592;2023-07-20T10:04:26;3.13;;;1.10;;
54167;SDS011;68429;50.958;3.592;2023-07-20T10:06:54;3.85;;;1.42;;
54167;SDS011;68429;50.958;3.592;2023-07-20T10:09:21;2.60;;;1.25;;
54167;SDS011;68429;50.958;3.592;2023-07-20T10:11:52;1.80;;;1.48;;
54167;SDS011;68429;50.958;3.592;2023-07-20T10:14:22;1.60;;;1.27;;
54167;SDS011;68429;50.958;3.592;2023-07-20T10:16:53;1.80;;;1.17;;
54167;SDS011;68429;50.958;3.592;2023-07-20T10:22:14;2.17;;;1.50;;
54167;SDS011;68429;50.958;3.592;2023-07-20T10:24:44;2.08;;;1.17;;
54167;SDS011;68429;50.958;3.592;2023-07-20T10:27:12;1.30;;;1.20;;
54167;SDS011;68429;50.958;3.592;2023-07-20T10:29:39;1.35;;;1.00;;
54167;SDS011;68429;50.958;3.592;2023-07-20T10:32:06;1.20;;;1.15;;
54167;SDS011;68429;50.958;3.592;2023-07-20T10:34:33;1.30;;;0.98;;
54167;SDS011;68429;50.958;3.592;2023-07-20T10:36:58;1.23;;;1.05;;
54167;SDS011;68429;50.958;3.592;2023-07-20T10:39:25;0.95;;;0.88;;
54167;SDS011;68429;50.958;3.592;2023-07-20T10:42:08;1.30;;;1.20;;
54167;SDS011;68429;50.958;3.592;2023-07-20T10:44:41;1.15;;;1.02;;
54167;SDS011;68429;50.958;3.592;2023-07-20T10:47:10;1.60;;;1.10;;
54167;SDS011;68429;50.958;3.592;2023-07-20T10:52:40;1.30;;;0.98;;
54167;SDS011;68429;50.958;3.592;2023-07-20T10:55:18;2.17;;;1.17;;
54167;SDS011;68429;50.958;3.592;2023-07-20T10:58:05;3.33;;;1.10;;
54167;SDS011;68429;50.958;3.592;2023-07-20T11:00:32;1.42;;;1.33;;
54167;SDS011;68429;50.958;3.592;2023-07-20T11:02:58;2.47;;;1.58;;
54167;SDS011;68429;50.958;3.592;2023-07-20T11:08:04;1.58;;;1.10;;
54167;SDS011;68429;50.958;3.592;2023-07-20T11:10:31;35.00;;;3.30;;
54167;SDS011;68429;50.958;3.592;2023-07-20T11:13:15;1.98;;;1.15;;
54167;SDS011;68429;50.958;3.592;2023-07-20T11:15:45;3.63;;;1.20;;
54167;SDS011;68429;50.958;3.592;2023-07-20T11:18:33;1.15;;;1.00;;
54167;SDS011;68429;50.958;3.592;2023-07-20T11:21:06;1.73;;;1.25;;
54167;SDS011;68429;50.958;3.592;2023-07-20T11:23:34;1.25;;;1.15;;
54167;SDS011;68429;50.958;3.592;2023-07-20T11:26:02;3.75;;;1.20;;
54167;SDS011;68429;50.958;3.592;2023-07-20T11:28:30;3.55;;;1.45;;
54167;SDS011;68429;50.958;3.592;2023-07-20T11:30:56;1.33;;;1.23;;
54167;SDS011;68429;50.958;3.592;2023-07-20T11:33:21;1.52;;;1.05;;
54167;SDS011;68429;50.958;3.592;2023-07-20T11:35:48;1.95;;;1.60;;
54167;SDS011;68429;50.958;3.592;2023-07-20T11:38:16;2.72;;;1.85;;
54167;SDS011;68429;50.958;3.592;2023-07-20T11:40:45;2.17;;;1.77;;
54167;SDS011;68429;50.958;3.592;2023-07-20T11:43:11;3.08;;;2.22;;
54167;SDS011;68429;50.958;3.592;2023-07-20T11:45:38;3.17;;;2.13;;
54167;SDS011;68429;50.958;3.592;2023-07-20T11:48:04;2.60;;;2.40;;
54167;SDS011;68429;50.958;3.592;2023-07-20T11:50:30;2.47;;;2.33;;
54167;SDS011;68429;50.958;3.592;2023-07-20T11:52:56;2.78;;;2.50;;
54167;SDS011;68429;50.958;3.592;2023-07-20T11:55:22;2.63;;;2.42;;
54167;SDS011;68429;50.958;3.592;2023-07-20T11:58:02;4.07;;;2.22;;
54167;SDS011;68429;50.958;3.592;2023-07-20T12:00:31;2.88;;;2.67;;
54167;SDS011;68429;50.958;3.592;2023-07-20T12:02:58;2.45;;;2.15;;
54167;SDS011;68429;50.958;3.592;2023-07-20T12:05:24;3.08;;;2.47;;
54167;SDS011;68429;50.958;3.592;2023-07-20T12:07:51;4.00;;;2.13;;
54167;SDS011;68429;50.958;3.592;2023-07-20T12:10:22;2.78;;;2.35;;
54167;SDS011;68429;50.958;3.592;2023-07-20T12:12:51;4.00;;;2.60;;
54167;SDS011;68429;50.958;3.592;2023-07-20T12:17:51;5.15;;;2.20;;
54167;SDS011;68429;50.958;3.592;2023-07-20T12:22:59;2.10;;;1.90;;
54167;SDS011;68429;50.958;3.592;2023-07-20T12:25:59;3.67;;;1.90;;
54167;SDS011;68429;50.958;3.592;2023-07-20T12:28:21;2.50;;;1.75;;
54167;SDS011;68429;50.958;3.592;2023-07-20T12:30:47;2.35;;;2.15;;
54167;SDS011;68429;50.958;3.592;2023-07-20T12:33:21;3.10;;;1.75;;
54167;SDS011;68429;50.958;3.592;2023-07-20T12:35:48;1.40;;;1.30;;
54167;SDS011;68429;50.958;3.592;2023-07-20T12:38:20;1.48;;;1.08;;
54167;SDS011;68429;50.958;3.592;2023-07-20T12:40:47;1.67;;;0.95;;
54167;SDS011;68429;50.958;3.592;2023-07-20T12:43:13;3.45;;;1.13;;
54167;SDS011;68429;50.958;3.592;2023-07-20T12:45:39;1.63;;;1.10;;
54167;SDS011;68429;50.958;3.592;2023-07-20T12:48:05;1.75;;;1.08;;
54167;SDS011;68429;50.958;3.592;2023-07-20T12:50:31;1.70;;;1.00;;
54167;SDS011;68429;50.958;3.592;2023-07-20T12:52:57;1.20;;;0.77;;
54167;SDS011;68429;50.958;3.592;2023-07-20T12:55:22;1.13;;;1.02;;
54167;SDS011;68429;50.958;3.592;2023-07-20T12:57:48;1.98;;;1.60;;
54167;SDS011;68429;50.958;3.592;2023-07-20T13:00:14;2.42;;;1.10;;
54167;SDS011;68429;50.958;3.592;2023-07-20T13:02:41;3.70;;;1.33;;
54167;SDS011;68429;50.958;3.592;2023-07-20T13:05:07;5.53;;;1.20;;
54167;SDS011;68429;50.958;3.592;2023-07-20T13:07:34;2.35;;;1.55;;
54167;SDS011;68429;50.958;3.592;2023-07-20T13:10:02;2.28;;;1.52;;
54167;SDS011;68429;50.958;3.592;2023-07-20T13:12:29;1.58;;;1.33;;
54167;SDS011;68429;50.958;3.592;2023-07-20T13:14:57;2.03;;;1.15;;
54167;SDS011;68429;50.958;3.592;2023-07-20T13:17:25;2.78;;;1.63;;
54167;SDS011;68429;50.958;3.592;2023-07-20T13:19:52;1.60;;;1.50;;
54167;SDS011;68429;50.958;3.592;2023-07-20T13:22:18;2.35;;;1.50;;
54167;SDS011;68429;50.958;3.592;2023-07-20T13:24:46;2.55;;;1.88;;
54167;SDS011;68429;50.958;3.592;2023-07-20T13:27:15;2.33;;;1.73;;
54167;SDS011;68429;50.958;3.592;2023-07-20T13:29:44;5.50;;;1.95;;
54167;SDS011;68429;50.958;3.592;2023-07-20T13:32:12;2.88;;;1.58;;
54167;SDS011;68429;50.958;3.592;2023-07-20T13:34:39;2.28;;;1.42;;
54167;SDS011;68429;50.958;3.592;2023-07-20T13:37:05;1.52;;;1.27;;
54167;SDS011;68429;50.958;3.592;2023-07-20T13:39:31;1.77;;;1.48;;
54167;SDS011;68429;50.958;3.592;2023-07-20T13:41:57;1.50;;;1.40;;
54167;SDS011;68429;50.958;3.592;2023-07-20T13:44:23;1.30;;;1.20;;
54167;SDS011;68429;50.958;3.592;2023-07-20T13:46:48;2.58;;;1.30;;
54167;SDS011;68429;50.958;3.592;2023-07-20T13:49:14;4.22;;;1.90;;
54167;SDS011;68429;50.958;3.592;2023-07-20T13:51:41;4.20;;;1.67;;
54167;SDS011;68429;50.958;3.592;2023-07-20T13:54:07;4.25;;;2.30;;
54167;SDS011;68429;50.958;3.592;2023-07-20T13:56:33;10.95;;;3.30;;
54167;SDS011;68429;50.958;3.592;2023-07-20T13:58:59;6.28;;;3.30;;
54167;SDS011;68429;50.958;3.592;2023-07-20T14:01:24;4.90;;;3.10;;
54167;SDS011;68429;50.958;3.592;2023-07-20T14:03:53;3.03;;;2.40;;
54167;SDS011;68429;50.958;3.592;2023-07-20T14:06:19;8.82;;;3.70;;
54167;SDS011;68429;50.958;3.592;2023-07-20T14:08:45;5.70;;;3.47;;
54167;SDS011;68429;50.958;3.592;2023-07-20T14:11:14;4.97;;;3.83;;
54167;SDS011;68429;50.958;3.592;2023-07-20T14:13:40;7.03;;;4.95;;
54167;SDS011;68429;50.958;3.592;2023-07-20T14:16:06;9.25;;;5.47;;
54167;SDS011;68429;50.958;3.592;2023-07-20T14:18:33;8.10;;;5.22;;
54167;SDS011;68429;50.958;3.592;2023-07-20T14:20:59;7.18;;;5.93;;
54167;SDS011;68429;50.958;3.592;2023-07-20T14:23:25;11.68;;;7.28;;
54167;SDS011;68429;50.958;3.592;2023-07-20T14:25:50;8.02;;;6.47;;
54167;SDS011;68429;50.958;3.592;2023-07-20T14:28:16;9.60;;;8.05;;
54167;SDS011;68429;50.958;3.592;2023-07-20T14:30:42;8.02;;;7.05;;
54167;SDS011;68429;50.958;3.592;2023-07-20T14:33:07;9.55;;;7.72;;
54167;SDS011;68429;50.958;3.592;2023-07-20T14:35:33;7.85;;;6.82;;
54167;SDS011;68429;50.958;3.592;2023-07-20T14:37:59;10.73;;;7.45;;
54167;SDS011;68429;50.958;3.592;2023-07-20T14:40:26;8.52;;;7.13;;
54167;SDS011;68429;50.958;3.592;2023-07-20T14:42:51;10.75;;;8.32;;
54167;SDS011;68429;50.958;3.592;2023-07-20T14:45:17;9.85;;;8.82;;
54167;SDS011;68429;50.958;3.592;2023-07-20T14:47:43;11.25;;;9.38;;
54167;SDS011;68429;50.958;3.592;2023-07-20T14:50:10;9.85;;;8.85;;
54167;SDS011;68429;50.958;3.592;2023-07-20T14:52:36;10.13;;;8.60;;
54167;SDS011;68429;50.958;3.592;2023-07-20T14:55:02;9.35;;;8.27;;
54167;SDS011;68429;50.958;3.592;2023-07-20T14:57:28;9.75;;;7.30;;
54167;SDS011;68429;50.958;3.592;2023-07-20T14:59:53;8.77;;;7.88;;
54167;SDS011;68429;50.958;3.592;2023-07-20T15:02:19;9.82;;;7.93;;
54167;SDS011;68429;50.958;3.592;2023-07-20T15:04:45;8.85;;;7.95;;